createdAt,value
2018-10-02T00:01:56.332Z,78.97
2018-10-02T00:04:26.695Z,78.79
2018-10-02T00:06:57.398Z,78.28
2018-10-02T00:09:28.024Z,78.33
2018-10-02T00:12:03.531Z,78.95
2018-10-02T00:14:34.071Z,79.27
2018-10-02T00:17:04.645Z,79.35
2018-10-02T00:19:35.476Z,79.48
2018-10-02T00:22:06.016Z,79.01
2018-10-02T00:24:36.522Z,79.11
2018-10-02T00:27:06.860Z,79.16
2018-10-02T00:29:37.268Z,79.14
2018-10-02T00:32:07.827Z,79.31
2018-10-02T00:34:38.286Z,79.31
2018-10-02T00:37:08.798Z,78.58
2018-10-02T00:39:39.114Z,78.59
2018-10-02T00:42:09.865Z,79.07
2018-10-02T00:44:40.407Z,78.86
2018-10-02T00:47:11.149Z,78.56
2018-10-02T00:49:41.693Z,78.73
2018-10-02T00:52:12.251Z,78.59
2018-10-02T00:54:43.927Z,78.97
2018-10-02T00:57:14.167Z,78.34
2018-10-02T00:59:44.742Z,78.29
2018-10-02T01:02:15.048Z,78.33
2018-10-02T01:04:45.548Z,78.33
2018-10-02T01:07:16.159Z,78.41
2018-10-02T01:09:46.606Z,78.29
2018-10-02T01:12:16.982Z,78.02
2018-10-02T01:14:47.420Z,78.14
2018-10-02T01:17:17.757Z,78.49
2018-10-02T01:19:48.198Z,78.19
2018-10-02T01:22:18.491Z,78.54
2018-10-02T01:24:48.981Z,78.52
2018-10-02T01:27:19.336Z,78.78
2018-10-02T01:29:51.468Z,78.85
2018-10-02T01:32:21.727Z,78.71
2018-10-02T01:34:52.124Z,78.25
2018-10-02T01:37:22.420Z,78.74
2018-10-02T01:39:52.888Z,78.37
2018-10-02T01:42:23.277Z,78.66
2018-10-02T01:44:53.513Z,78.56
2018-10-02T01:47:23.705Z,78.86
2018-10-02T01:49:54.308Z,78.56
2018-10-02T01:52:24.660Z,77.88
2018-10-02T01:54:55.308Z,77.75
2018-10-02T01:57:25.644Z,77.41
2018-10-02T01:59:56.101Z,77.13
2018-10-02T02:02:26.487Z,77.27
2018-10-02T02:04:56.744Z,77.93
2018-10-02T02:07:27.255Z,77.80
2018-10-02T02:09:57.726Z,78.03
2018-10-02T02:12:28.035Z,78.12
2018-10-02T02:14:58.368Z,78.16
2018-10-02T02:17:28.798Z,78.31
2018-10-02T02:19:59.364Z,78.59
2018-10-02T02:22:29.900Z,78.38
2018-10-02T02:25:00.311Z,78.07
2018-10-02T02:27:30.684Z,78.36
2018-10-02T02:30:01.160Z,78.59
2018-10-02T02:32:31.597Z,78.25
2018-10-02T02:35:01.965Z,78.22
2018-10-02T02:37:32.321Z,77.71
2018-10-02T02:40:02.972Z,77.68
2018-10-02T02:42:33.395Z,77.40
2018-10-02T02:45:04.015Z,77.10
2018-10-02T02:48:37.346Z,77.41
2018-10-02T02:51:12.855Z,77.41
2018-10-02T02:53:43.157Z,78.05
2018-10-02T02:56:13.436Z,78.50
2018-10-02T02:58:43.819Z,77.85
2018-10-02T03:01:14.329Z,78.43
2018-10-02T03:03:44.592Z,79.37
2018-10-02T03:06:14.932Z,78.66
2018-10-02T03:08:45.303Z,78.34
2018-10-02T03:11:15.882Z,79.00
2018-10-02T03:13:46.307Z,78.86
2018-10-02T03:16:16.574Z,78.40
2018-10-02T03:18:46.969Z,78.88
2018-10-02T03:21:17.547Z,78.85
2018-10-02T03:23:47.931Z,78.76
2018-10-02T03:26:18.207Z,78.56
2018-10-02T03:28:48.358Z,78.29
2018-10-02T03:31:18.856Z,78.89
2018-10-02T03:33:49.154Z,78.39
2018-10-02T03:36:19.383Z,78.17
2018-10-02T03:38:49.710Z,78.15
2018-10-02T03:41:20.312Z,77.89
2018-10-02T03:43:50.539Z,77.98
2018-10-02T03:46:20.915Z,78.08
2018-10-02T03:48:51.352Z,78.13
2018-10-02T03:51:21.668Z,78.23
2018-10-02T03:53:52.071Z,78.16
2018-10-02T03:56:22.322Z,78.10
2018-10-02T03:58:53.249Z,78.50
2018-10-02T04:01:23.678Z,78.25
2018-10-02T04:03:54.125Z,78.12
2018-10-02T04:06:25.160Z,78.00
2018-10-02T04:08:55.512Z,77.90
2018-10-02T04:11:25.943Z,77.75
2018-10-02T04:13:56.210Z,77.53
2018-10-02T04:16:26.691Z,77.60
2018-10-02T04:18:57.122Z,78.26
2018-10-02T04:21:34.784Z,77.70
2018-10-02T04:24:06.533Z,77.90
2018-10-02T04:26:38.286Z,77.33
2018-10-02T04:29:08.759Z,77.30
2018-10-02T04:31:39.284Z,77.23
2018-10-02T04:34:09.624Z,77.18
2018-10-02T04:36:39.974Z,77.05
2018-10-02T04:39:10.775Z,76.74
2018-10-02T04:41:41.336Z,77.26
2018-10-02T04:44:11.482Z,77.31
2018-10-02T04:46:42.423Z,76.88
2018-10-02T04:49:12.803Z,76.50
2018-10-02T04:51:43.176Z,77.12
2018-10-02T04:54:13.605Z,77.18
2018-10-02T04:56:43.916Z,76.73
2018-10-02T04:59:14.230Z,76.87
2018-10-02T05:01:44.583Z,76.86
2018-10-02T05:04:15.004Z,76.61
2018-10-02T05:06:45.215Z,75.97
2018-10-02T05:09:15.633Z,75.85
2018-10-02T05:11:46.133Z,76.02
2018-10-02T05:14:16.487Z,76.14
2018-10-02T05:16:46.636Z,76.30
2018-10-02T05:19:17.042Z,76.28
2018-10-02T05:21:47.511Z,75.96
2018-10-02T05:24:18.028Z,75.60
2018-10-02T05:26:48.421Z,76.04
2018-10-02T05:29:20.426Z,75.88
2018-10-02T05:31:50.860Z,75.54
2018-10-02T05:34:21.155Z,75.36
2018-10-02T05:36:51.534Z,75.70
2018-10-02T05:39:21.863Z,75.36
2018-10-02T05:41:52.196Z,76.01
2018-10-02T05:44:22.488Z,75.77
2018-10-02T05:46:52.856Z,75.88
2018-10-02T05:49:23.115Z,75.95
2018-10-02T05:51:53.448Z,75.15
2018-10-02T05:54:23.807Z,75.16
2018-10-02T05:56:54.188Z,75.03
2018-10-02T05:59:24.423Z,75.12
2018-10-02T06:01:55.371Z,75.57
2018-10-02T06:04:45.484Z,75.57
2018-10-02T06:07:15.739Z,75.33
2018-10-02T06:09:46.137Z,75.58
2018-10-02T06:12:16.595Z,74.98
2018-10-02T06:14:46.907Z,75.66
2018-10-02T06:17:17.725Z,74.99
2018-10-02T06:19:48.859Z,74.93
2018-10-02T06:22:19.520Z,74.69
2018-10-02T06:24:50.566Z,74.61
2018-10-02T06:27:21.077Z,74.29
2018-10-02T06:29:51.531Z,74.02
2018-10-02T06:32:21.759Z,74.18
2018-10-02T06:34:52.268Z,74.47
2018-10-02T06:37:22.928Z,74.97
2018-10-02T06:39:53.372Z,75.60
2018-10-02T06:42:23.962Z,76.05
2018-10-02T06:44:54.432Z,75.34
2018-10-02T06:47:24.670Z,75.26
2018-10-02T06:49:54.963Z,75.33
2018-10-02T06:52:25.541Z,76.09
2018-10-02T06:54:56.014Z,76.46
2018-10-02T06:57:26.631Z,76.63
2018-10-02T06:59:57.203Z,76.88
2018-10-02T07:02:27.495Z,76.89
2018-10-02T07:04:57.840Z,77.12
2018-10-02T07:07:28.491Z,76.72
2018-10-02T07:09:58.827Z,77.13
2018-10-02T07:12:29.649Z,76.85
2018-10-02T07:15:00.068Z,77.30
2018-10-02T07:17:30.898Z,77.38
2018-10-02T07:20:01.172Z,77.13
2018-10-02T07:22:31.524Z,77.80
2018-10-02T07:25:01.913Z,77.49
2018-10-02T07:27:32.542Z,77.74
2018-10-02T07:30:03.028Z,77.63
2018-10-02T07:32:33.381Z,77.85
2018-10-02T07:35:03.793Z,77.46
2018-10-02T07:37:34.300Z,77.81
2018-10-02T07:40:04.588Z,77.66
2018-10-02T07:42:35.140Z,77.65
2018-10-02T07:45:06.200Z,77.66
2018-10-02T07:47:36.804Z,77.73
2018-10-02T07:50:07.334Z,77.74
2018-10-02T07:52:37.886Z,78.25
2018-10-02T07:55:08.392Z,77.86
2018-10-02T07:57:38.941Z,77.46
2018-10-02T08:00:09.686Z,78.42
2018-10-02T08:02:40.201Z,78.62
2018-10-02T08:05:10.835Z,77.47
2018-10-02T08:07:41.229Z,77.27
2018-10-02T08:10:11.596Z,77.81
2018-10-02T08:12:42.208Z,77.65
2018-10-02T08:15:12.653Z,77.60
2018-10-02T08:17:43.234Z,77.18
2018-10-02T08:20:13.571Z,76.56
2018-10-02T08:22:44.118Z,76.81
2018-10-02T08:25:14.365Z,75.98
2018-10-02T08:27:44.864Z,76.41
2018-10-02T08:30:15.176Z,75.58
2018-10-02T08:32:45.881Z,75.55
2018-10-02T08:35:16.079Z,75.76
2018-10-02T08:37:46.479Z,75.26
2018-10-02T08:40:16.897Z,74.59
2018-10-02T08:42:47.273Z,74.92
2018-10-02T08:45:17.764Z,74.22
2018-10-02T08:47:48.178Z,74.26
2018-10-02T08:50:18.447Z,74.79
2018-10-02T08:52:48.956Z,74.33
2018-10-02T08:55:19.272Z,74.86
2018-10-02T08:57:49.536Z,75.10
2018-10-02T09:00:20.197Z,75.10
2018-10-02T09:02:50.612Z,74.44
2018-10-02T09:05:21.200Z,74.70
2018-10-02T09:07:51.700Z,74.91
2018-10-02T09:10:22.271Z,74.93
2018-10-02T09:12:52.698Z,74.73
2018-10-02T09:15:23.120Z,74.98
2018-10-02T09:17:53.368Z,75.23
2018-10-02T09:20:23.976Z,74.16
2018-10-02T09:22:54.249Z,74.40
2018-10-02T09:25:24.611Z,74.55
2018-10-02T09:27:55.116Z,74.43
2018-10-02T09:31:32.587Z,75.11
2018-10-02T09:34:07.961Z,75.31
2018-10-02T09:36:43.398Z,76.18
2018-10-02T09:39:18.845Z,76.80
2018-10-02T09:42:54.978Z,75.81
2018-10-02T09:45:25.553Z,77.13
2018-10-02T09:47:56.101Z,76.22
2018-10-02T09:50:26.438Z,76.22
2018-10-02T09:52:57.021Z,76.71
2018-10-02T09:55:27.425Z,77.16
2018-10-02T09:57:57.977Z,77.10
2018-10-02T10:00:33.201Z,77.39
2018-10-02T10:03:03.467Z,77.45
2018-10-02T10:05:33.928Z,77.37
2018-10-02T10:08:04.376Z,77.47
2018-10-02T10:10:35.063Z,77.63
2018-10-02T10:13:05.389Z,78.12
2018-10-02T10:15:35.757Z,78.07
2018-10-02T10:18:06.160Z,78.29
2018-10-02T10:20:36.615Z,78.59
2018-10-02T10:23:07.108Z,78.51
2018-10-02T10:25:37.571Z,78.65
2018-10-02T10:28:08.116Z,78.47
2018-10-02T10:30:38.591Z,78.62
2018-10-02T10:33:08.427Z,78.51
2018-10-02T10:35:38.895Z,78.89
2018-10-02T10:38:09.378Z,79.01
2018-10-02T10:40:39.851Z,79.36
2018-10-02T10:43:10.232Z,79.12
2018-10-02T10:45:40.698Z,79.33
2018-10-02T10:48:11.001Z,79.53
2018-10-02T10:50:41.872Z,79.23
2018-10-02T10:53:12.059Z,79.22
2018-10-02T10:55:46.340Z,78.45
2018-10-02T10:58:16.585Z,79.25
2018-10-02T11:00:47.270Z,79.76
2018-10-02T11:03:17.563Z,79.90
2018-10-02T11:05:48.022Z,79.49
2018-10-02T11:08:18.339Z,79.25
2018-10-02T11:10:48.700Z,79.65
2018-10-02T11:13:18.969Z,79.91
2018-10-02T11:15:49.429Z,80.07
2018-10-02T11:18:19.856Z,79.98
2018-10-02T11:20:52.458Z,80.03
2018-10-02T11:23:22.777Z,80.28
2018-10-02T11:25:53.355Z,79.70
2018-10-02T11:28:23.953Z,79.39
2018-10-02T11:30:54.511Z,79.90
2018-10-02T11:33:24.882Z,79.89
2018-10-02T11:35:55.229Z,79.90
2018-10-02T11:38:25.678Z,80.37
2018-10-02T11:40:56.147Z,80.63
2018-10-02T11:43:26.790Z,80.75
2018-10-02T11:45:57.401Z,80.65
2018-10-02T11:48:27.902Z,80.48
2018-10-02T11:50:58.395Z,81.04
2018-10-02T11:53:28.727Z,80.74
2018-10-02T11:55:59.307Z,80.38
2018-10-02T11:58:29.803Z,80.44
2018-10-02T12:01:00.275Z,80.19
2018-10-02T12:03:30.825Z,80.23
2018-10-02T12:06:01.140Z,80.01
2018-10-02T12:08:31.438Z,80.87
2018-10-02T12:11:01.913Z,80.76
2018-10-02T12:13:32.492Z,80.56
2018-10-02T12:16:02.980Z,80.51
2018-10-02T12:18:33.388Z,80.33
2018-10-02T12:21:03.899Z,81.00
2018-10-02T12:23:34.278Z,81.17
2018-10-02T12:26:04.835Z,80.13
2018-10-02T12:28:35.383Z,80.56
2018-10-02T12:31:06.001Z,80.38
2018-10-02T12:33:36.344Z,80.60
2018-10-02T12:36:07.488Z,80.47
2018-10-02T12:38:37.870Z,80.59
2018-10-02T12:41:08.412Z,80.53
2018-10-02T12:43:38.784Z,80.86
2018-10-02T12:46:09.516Z,80.43
2018-10-02T12:48:39.946Z,80.26
2018-10-02T12:51:10.387Z,81.24
2018-10-02T12:53:40.927Z,80.62
2018-10-02T12:56:11.255Z,80.96
2018-10-02T12:58:41.761Z,80.91
2018-10-02T13:01:12.262Z,81.01
2018-10-02T13:03:42.688Z,80.36
2018-10-02T13:06:12.983Z,80.99
2018-10-02T13:08:43.315Z,81.51
2018-10-02T13:11:13.671Z,80.78
2018-10-02T13:13:44.080Z,81.22
2018-10-02T13:16:14.315Z,81.80
2018-10-02T13:18:44.708Z,80.57
2018-10-02T13:21:15.164Z,81.13
2018-10-02T13:23:45.476Z,81.65
2018-10-02T13:26:15.815Z,81.25
2018-10-02T13:28:46.105Z,81.79
2018-10-02T13:31:17.100Z,82.07
2018-10-02T13:33:47.502Z,82.17
2018-10-02T13:36:18.095Z,81.65
2018-10-02T13:38:48.689Z,81.55
2018-10-02T13:41:19.167Z,81.92
2018-10-02T13:43:49.675Z,81.95
2018-10-02T13:46:20.120Z,81.92
2018-10-02T13:48:50.404Z,82.11
2018-10-02T13:51:20.855Z,81.21
2018-10-02T13:53:51.274Z,81.79
2018-10-02T13:56:21.720Z,81.55
2018-10-02T13:58:52.219Z,82.07
2018-10-02T14:01:22.539Z,81.52
2018-10-02T14:03:53.399Z,81.58
2018-10-02T14:06:23.779Z,81.55
2018-10-02T14:08:54.334Z,81.82
2018-10-02T14:11:24.920Z,82.17
2018-10-02T14:13:55.436Z,81.73
2018-10-02T14:16:25.795Z,81.49
2018-10-02T14:18:56.153Z,81.87
2018-10-02T14:21:26.656Z,80.91
2018-10-02T14:23:57.235Z,82.05
2018-10-02T14:26:27.603Z,82.05
2018-10-02T14:28:58.107Z,81.57
2018-10-02T14:31:28.436Z,81.53
2018-10-02T14:33:58.635Z,81.87
2018-10-02T14:36:29.241Z,81.79
2018-10-02T14:38:59.632Z,81.25
2018-10-02T14:41:29.863Z,81.70
2018-10-02T14:44:00.255Z,81.79
2018-10-02T14:46:30.759Z,81.54
2018-10-02T14:49:01.161Z,81.93
2018-10-02T14:51:37.607Z,81.46
2018-10-02T14:54:08.060Z,80.96
2018-10-02T14:56:38.415Z,81.47
2018-10-02T14:59:08.957Z,81.99
2018-10-02T15:01:39.357Z,81.37
2018-10-02T15:04:10.152Z,81.18
2018-10-02T15:06:40.648Z,81.16
2018-10-02T15:09:11.160Z,81.33
2018-10-02T15:11:41.584Z,81.51
2018-10-02T15:14:11.972Z,81.62
2018-10-02T15:16:42.413Z,81.10
2018-10-02T15:19:12.736Z,81.24
2018-10-02T15:21:43.204Z,81.71
2018-10-02T15:24:13.728Z,81.43
2018-10-02T15:26:44.107Z,81.91
2018-10-02T15:29:14.375Z,81.53
2018-10-02T15:32:10.422Z,81.50
2018-10-02T15:34:40.911Z,81.89
2018-10-02T15:37:11.343Z,82.44
2018-10-02T15:39:41.688Z,81.50
2018-10-02T15:42:12.149Z,82.29
2018-10-02T15:44:42.515Z,82.03
2018-10-02T15:47:12.949Z,82.28
2018-10-02T15:49:43.419Z,81.91
2018-10-02T15:52:14.290Z,81.76
2018-10-02T15:54:44.564Z,81.73
2018-10-02T15:57:14.908Z,81.30
2018-10-02T15:59:45.336Z,81.87
2018-10-02T16:02:15.842Z,81.62
2018-10-02T16:04:46.103Z,82.14
2018-10-02T16:07:16.333Z,82.19
2018-10-02T16:09:46.750Z,82.02
2018-10-02T16:12:16.993Z,82.02
2018-10-02T16:14:47.403Z,82.28
2018-10-02T16:17:17.781Z,83.16
2018-10-02T16:19:48.284Z,82.87
2018-10-02T16:22:18.680Z,83.19
2018-10-02T16:24:48.995Z,83.03
2018-10-02T16:27:19.477Z,83.62
2018-10-02T16:29:49.983Z,83.04
2018-10-02T16:32:20.395Z,82.85
2018-10-02T16:34:50.768Z,83.53
2018-10-02T16:37:21.030Z,83.98
2018-10-02T16:39:51.379Z,84.04
2018-10-02T16:42:21.937Z,83.98
2018-10-02T16:44:52.124Z,83.91
2018-10-02T16:47:22.428Z,84.36
2018-10-02T16:49:52.804Z,84.20
2018-10-02T16:52:23.305Z,84.64
2018-10-02T16:54:53.709Z,85.15
2018-10-02T16:57:24.260Z,84.92
2018-10-02T16:59:54.660Z,85.66
2018-10-02T17:02:25.619Z,85.64
2018-10-02T17:04:56.036Z,85.48
2018-10-02T17:07:26.632Z,85.58
2018-10-02T17:09:57.207Z,85.82
2018-10-02T17:12:27.575Z,85.76
2018-10-02T17:14:57.972Z,85.55
2018-10-02T17:17:28.409Z,85.11
2018-10-02T17:19:58.709Z,84.72
2018-10-02T17:22:29.136Z,84.72
2018-10-02T17:24:59.356Z,84.32
2018-10-02T17:27:29.932Z,84.69
2018-10-02T17:30:01.111Z,84.11
2018-10-02T17:32:31.481Z,84.22
2018-10-02T17:35:01.917Z,83.40
2018-10-02T17:37:32.375Z,83.25
2018-10-02T17:40:02.698Z,84.12
2018-10-02T17:42:33.278Z,84.56
2018-10-02T17:45:03.740Z,84.07
2018-10-02T17:47:33.981Z,84.08
2018-10-02T17:50:04.322Z,83.34
2018-10-02T17:52:34.785Z,83.19
2018-10-02T17:55:05.101Z,83.45
2018-10-02T17:57:35.533Z,83.29
2018-10-02T18:00:06.917Z,83.46
2018-10-02T18:02:37.515Z,83.77
2018-10-02T18:05:07.899Z,83.81
2018-10-02T18:07:38.405Z,83.85
2018-10-02T18:10:08.981Z,83.03
2018-10-02T18:12:39.375Z,83.30
2018-10-02T18:15:09.823Z,83.27
2018-10-02T18:17:40.395Z,83.28
2018-10-02T18:20:10.784Z,83.06
2018-10-02T18:22:41.159Z,83.78
2018-10-02T18:25:11.548Z,83.57
2018-10-02T18:27:41.993Z,83.39
2018-10-02T18:30:12.456Z,83.03
2018-10-02T18:32:42.888Z,83.23
2018-10-02T18:35:13.445Z,82.66
2018-10-02T18:37:43.887Z,82.84
2018-10-02T18:40:14.439Z,82.52
2018-10-02T18:42:44.913Z,82.49
2018-10-02T18:45:15.280Z,82.51
2018-10-02T18:47:45.672Z,82.49
2018-10-02T18:50:16.183Z,82.16
2018-10-02T18:52:46.653Z,82.75
2018-10-02T18:55:17.119Z,81.93
2018-10-02T18:57:47.612Z,82.68
2018-10-02T19:00:18.073Z,82.39
2018-10-02T19:02:48.457Z,82.45
2018-10-02T19:05:18.977Z,82.75
2018-10-02T19:07:50.307Z,83.35
2018-10-02T19:10:20.732Z,83.32
2018-10-02T19:12:51.072Z,82.57
2018-10-02T19:15:21.369Z,83.29
2018-10-02T19:17:51.745Z,83.14
2018-10-02T19:20:27.397Z,83.57
2018-10-02T19:22:57.819Z,83.21
2018-10-02T19:25:33.084Z,82.82
2018-10-02T19:28:03.525Z,83.02
2018-10-02T19:30:39.195Z,82.62
2018-10-02T19:33:09.679Z,82.91
2018-10-02T19:35:40.105Z,82.82
2018-10-02T19:38:15.640Z,82.69
2018-10-02T19:40:46.087Z,82.21
2018-10-02T19:43:16.692Z,83.25
2018-10-02T19:45:51.868Z,83.08
2018-10-02T19:48:22.143Z,83.31
2018-10-02T19:50:52.608Z,82.32
2018-10-02T19:53:23.104Z,82.08
2018-10-02T19:55:54.068Z,82.50
2018-10-02T19:58:24.484Z,82.08
2018-10-02T20:00:54.972Z,82.34
2018-10-02T20:03:25.219Z,82.82
2018-10-02T20:05:55.872Z,82.10
2018-10-02T20:08:26.311Z,82.00
2018-10-02T20:10:56.704Z,82.12
2018-10-02T20:13:27.220Z,82.56
2018-10-02T20:15:58.132Z,82.13
2018-10-02T20:18:28.473Z,81.54
2018-10-02T20:20:58.736Z,81.87
2018-10-02T20:23:29.294Z,81.80
2018-10-02T20:25:59.891Z,81.13
2018-10-02T20:28:30.772Z,79.59
2018-10-02T20:31:01.296Z,78.98
2018-10-02T20:33:31.532Z,79.33
2018-10-02T20:36:01.907Z,78.67
2018-10-02T20:38:32.241Z,77.57
2018-10-02T20:41:02.774Z,77.40
2018-10-02T20:43:33.132Z,77.57
2018-10-02T20:46:03.634Z,77.67
2018-10-02T20:48:34.024Z,76.95
2018-10-02T20:51:04.291Z,77.47
2018-10-02T20:53:34.706Z,77.04
2018-10-02T20:56:05.165Z,76.71
2018-10-02T20:58:35.737Z,76.86
2018-10-02T21:01:06.235Z,76.48
2018-10-02T21:03:36.472Z,77.26
2018-10-02T21:06:06.905Z,77.17
2018-10-02T21:08:37.356Z,77.19
2018-10-02T21:11:07.944Z,77.16
2018-10-02T21:13:38.357Z,76.35
2018-10-02T21:16:08.917Z,77.42
2018-10-02T21:18:39.289Z,77.04
2018-10-02T21:21:09.776Z,77.18
2018-10-02T21:23:40.278Z,76.54
2018-10-02T21:26:10.743Z,76.90
2018-10-02T21:28:41.169Z,76.67
2018-10-02T21:31:11.684Z,76.22
2018-10-02T21:33:42.085Z,76.03
2018-10-02T21:36:13.247Z,76.30
2018-10-02T21:38:43.651Z,76.48
2018-10-02T21:41:14.148Z,76.11
2018-10-02T21:43:45.041Z,76.78
2018-10-02T21:46:15.407Z,75.98
2018-10-02T21:48:45.979Z,75.86
2018-10-02T21:51:16.411Z,76.60
2018-10-02T21:53:46.812Z,75.55
2018-10-02T21:56:17.420Z,75.45
2018-10-02T21:58:47.733Z,75.17
2018-10-02T22:01:18.324Z,75.07
2018-10-02T22:03:48.715Z,74.58
2018-10-02T22:06:19.064Z,74.39
2018-10-02T22:08:49.431Z,74.26
2018-10-02T22:11:20.001Z,73.76
2018-10-02T22:13:50.417Z,74.06
2018-10-02T22:16:26.315Z,74.29
2018-10-02T22:18:56.663Z,74.63
2018-10-02T22:21:27.255Z,74.48
2018-10-02T22:23:57.641Z,74.64
2018-10-02T22:26:28.040Z,74.59
2018-10-02T22:28:59.397Z,74.26
2018-10-02T22:31:29.828Z,73.67
2018-10-02T22:34:00.080Z,74.00
2018-10-02T22:36:30.663Z,73.42
2018-10-02T22:39:00.969Z,73.87
2018-10-02T22:41:31.436Z,73.56
2018-10-02T22:44:01.755Z,73.14
2018-10-02T22:46:32.298Z,73.81
2018-10-02T22:49:02.756Z,74.06
2018-10-02T22:51:33.119Z,73.76
2018-10-02T22:54:03.576Z,73.51
2018-10-02T22:56:34.125Z,74.09
2018-10-02T22:59:04.544Z,73.54
2018-10-02T23:01:35.436Z,73.27
2018-10-02T23:04:06.005Z,73.82
2018-10-02T23:06:36.543Z,73.04
2018-10-02T23:09:10.858Z,72.49
2018-10-02T23:11:41.332Z,72.57
2018-10-02T23:14:11.680Z,72.02
2018-10-02T23:16:42.155Z,72.28
2018-10-02T23:19:12.561Z,73.03
2018-10-02T23:21:42.800Z,71.72
2018-10-02T23:24:13.207Z,72.64
2018-10-02T23:26:43.783Z,72.21
2018-10-02T23:29:14.185Z,71.49
2018-10-02T23:31:44.449Z,72.35
2018-10-02T23:34:14.607Z,72.72
2018-10-02T23:36:45.777Z,72.60
2018-10-02T23:39:16.196Z,73.04
2018-10-02T23:41:46.615Z,73.44
2018-10-02T23:44:16.943Z,73.73
2018-10-02T23:46:47.617Z,73.14
2018-10-02T23:49:18.121Z,74.08
2018-10-02T23:51:48.517Z,73.78
2018-10-02T23:54:18.888Z,73.88
2018-10-02T23:56:49.954Z,73.38
2018-10-02T23:59:20.467Z,73.65
